Strasbourg, France

5:00 PM CET on January 26, 2015 (GMT +0100)
Entzheim | Change Station
CLOSE
Current Station
Airport
Location: Strasbourg,
Elevation: 505 ft
Nearby Weather Stations

Elev 505 ft 48.55 °N, 7.64 °E | Updated 30 minutes ago

Light Snow
Light Snow Rain
34 °F
Feels Like 25 °F
N
13
Wind Variable Wind from South

Today
High -- | Low -- °F
--% Chance of Precip.
Yesterday
High -- | Low -- °F
Precip. -- in
8:06 AM 5:17 PM
Waxing Crescent, 44% visible
Pressure 30.18 in
Visibility 4.3 miles
Clouds Mostly Cloudy 500 ft
Overcast 2600 ft
Windchill 25 °F
Dew Point 34 °F
Humidity 100%
Rainfall 0.00 in
Snow Depth Not available.
UV 0 out of 12
Pollen Not available.
Air Quality Not available.
Flu Activity Not available.
METAR LFST 261530Z AUTO 18011KT 150V220 7000 -SNRA BKN005 OVC026 01/01 Q1022

More Conditions Fewer Conditions

Pressure 30.18 in
Visibility 4.3 miles
Clouds Mostly Cloudy 500 ft
Overcast 2600 ft
Windchill 25 °F
Dew Point 34 °F
Humidity 100%
Rainfall 0.00 in
Snow Depth Not available.
UV 0 out of 12
Pollen Not available.
Air Quality Not available.
Flu Activity Not available.
METAR LFST 261530Z AUTO 18011KT 150V220 7000 -SNRA BKN005 OVC026 01/01 Q1022

More Conditions Fewer Conditions

10-Day Weather Forecast

Almanac

Astronomy

Jan. 26, 2015 Rise Set
Actual Time
Civil Twilight
Nautical Twilight
Astronomical Twilight
Moon
Length of Visible Light
Length of Day
Tomorrow will be .
, % of the Moon is Illuminated

Today's Extremes

Country Highs Country Lows

Community

WunderPhotos

Upload Photos

1,790,258 photos uploaded!

WunderBlogs® & News

Nearby

Air Quality

  Air Quality AQ Index Pollutant
Not available.

Snow Depth

Station Depth Elevation

Earthquake Activity

City Distance Mag. Time & Date
Minimum magnitude displayed is 2.5.

Coastal Water Temperatures

Place Temperature

Nearby Weather Stations